Time;durP1;ratioP1;P1;durP2;ratioP2;P2;SDS_P1;SDS_P2;PMS_P1;PMS_P2;Temp;Humidity;BMP_temperature;BMP_pressure;BME280_temperature;BME280_humidity;BME280_pressure;Samples;Min_cycle;Max_cycle;Signal;HPM_P1;HPM_P2
2023/09/17 00:01:33;;;;;;;6.07;3.20;;;;;;;19.43;78.28;100225.44;4993605;28;20452;-89
2023/09/17 00:03:58;;;;;;;3.38;2.20;;;;;;;19.19;78.19;100195.28;4993225;28;20030;-89
2023/09/17 00:06:24;;;;;;;6.15;3.60;;;;;;;19.55;77.91;100240.97;4992721;28;20046;-90
2023/09/17 00:08:49;;;;;;;3.95;2.20;;;;;;;19.34;77.31;100197.31;4994495;28;20026;-90
2023/09/17 00:11:15;;;;;;;4.68;2.83;;;;;;;19.55;77.16;100232.94;4993836;28;20037;-89
2023/09/17 00:13:41;;;;;;;4.97;3.28;;;;;;;19.26;77.62;100202.09;4993565;28;20023;-90
2023/09/17 00:16:07;;;;;;;5.15;2.80;;;;;;;19.54;77.81;100235.69;4992519;28;20045;-90
2023/09/17 00:18:33;;;;;;;3.28;2.58;;;;;;;19.35;77.61;100209.72;4993236;28;20485;-92
2023/09/17 00:21:00;;;;;;;3.58;2.63;;;;;;;19.33;78.04;100225.84;4992166;28;20050;-91
2023/09/17 00:23:25;;;;;;;4.45;2.42;;;;;;;19.47;78.30;100240.44;4975512;28;20044;-90
2023/09/17 00:25:51;;;;;;;6.78;3.10;;;;;;;19.31;77.60;100189.41;4991635;28;20109;-90
2023/09/17 00:28:17;;;;;;;5.20;2.90;;;;;;;19.34;77.66;100208.00;4992552;28;20397;-90
2023/09/17 00:30:42;;;;;;;3.50;2.35;;;;;;;19.60;78.24;100246.13;4992669;28;20061;-90
2023/09/17 00:33:08;;;;;;;5.38;3.10;;;;;;;19.48;77.82;100224.31;4992837;28;20023;-89
2023/09/17 00:35:33;;;;;;;5.85;3.63;;;;;;;19.57;77.76;100212.34;4975656;28;20030;-89
2023/09/17 00:37:59;;;;;;;4.90;2.63;;;;;;;19.51;78.39;100228.69;4991821;28;20030;-89
2023/09/17 00:40:28;;;;;;;5.55;3.60;;;;;;;19.39;78.29;100197.09;4992870;28;20133;-89
2023/09/17 00:42:54;;;;;;;6.13;3.80;;;;;;;19.32;78.73;100180.44;4975366;28;20487;-89
2023/09/17 00:45:19;;;;;;;8.10;4.72;;;;;;;19.77;77.96;100246.28;4991986;28;20030;-89
2023/09/17 00:47:46;;;;;;;5.03;3.08;;;;;;;19.64;77.63;100218.28;4992091;28;20507;-89
2023/09/17 00:50:12;;;;;;;3.85;2.88;;;;;;;19.38;78.35;100212.28;4991247;28;20041;-89
2023/09/17 00:52:38;;;;;;;5.88;3.15;;;;;;;19.11;78.87;100193.81;4992855;28;20034;-89
2023/09/17 00:55:05;;;;;;;5.85;3.20;;;;;;;19.07;78.89;100172.59;4992649;28;20034;-89
2023/09/17 00:57:31;;;;;;;7.95;3.72;;;;;;;19.27;78.70;100226.09;4992764;28;20034;-89
2023/09/17 00:59:57;;;;;;;5.15;3.22;;;;;;;19.31;78.11;100217.03;4990798;28;20073;-90
2023/09/17 01:02:26;;;;;;;5.93;3.75;;;;;;;19.34;78.30;100208.00;4992249;28;20049;-91
2023/09/17 01:04:53;;;;;;;11.43;3.05;;;;;;;19.28;78.14;100190.41;4992610;28;20112;-90
2023/09/17 01:07:20;;;;;;;5.63;3.40;;;;;;;19.39;77.71;100218.50;4992873;28;20053;-90
2023/09/17 01:09:46;;;;;;;5.65;3.28;;;;;;;19.30;77.69;100183.19;4992718;28;20049;-90
2023/09/17 01:12:12;;;;;;;7.43;4.25;;;;;;;19.31;77.75;100208.13;4992248;28;20469;-89
2023/09/17 01:14:38;;;;;;;5.38;3.00;;;;;;;19.59;77.97;100239.91;4992541;28;20034;-89
2023/09/17 01:17:10;;;;;;;3.53;2.80;;;;;;;19.20;78.56;100191.66;4991893;28;20346;-89
2023/09/17 01:19:36;;;;;;;5.50;3.22;;;;;;;19.25;78.96;100200.38;4974102;28;20145;-89
2023/09/17 01:22:09;;;;;;;4.53;2.88;;;;;;;19.32;79.17;100217.88;4989216;28;20098;-90
2023/09/17 01:24:54;;;;;;;4.13;3.38;;;;;;;19.06;79.42;100162.84;4992803;28;20035;-90
2023/09/17 01:27:21;;;;;;;5.50;3.75;;;;;;;19.11;79.67;100215.19;4992537;28;20030;-90
2023/09/17 01:29:46;;;;;;;4.18;2.95;;;;;;;18.79;79.64;100163.91;4975028;28;20456;-90
2023/09/17 01:32:12;;;;;;;4.32;2.33;;;;;;;19.35;79.73;100273.91;4991052;28;20038;-90
2023/09/17 01:34:42;;;;;;;4.05;3.08;;;;;;;18.78;79.37;100175.56;4974854;28;20026;-90
2023/09/17 01:37:25;;;;;;;3.33;1.90;;;;;;;18.88;79.64;100199.25;4992164;28;20026;-90
2023/09/17 01:39:59;;;;;;;6.47;4.05;;;;;;;18.99;79.33;100205.00;4992125;28;20121;-90
2023/09/17 01:42:27;;;;;;;4.53;3.57;;;;;;;19.26;79.30;100224.38;4973297;28;20030;-91
2023/09/17 01:44:56;;;;;;;5.55;3.42;;;;;;;18.94;79.30;100172.28;4990266;28;20217;-91
2023/09/17 01:47:23;;;;;;;7.20;4.30;;;;;;;19.06;79.67;100194.91;4988946;28;20034;-91
2023/09/17 01:49:50;;;;;;;5.65;3.70;;;;;;;18.99;79.25;100150.69;4973118;28;20026;-90
2023/09/17 01:52:20;;;;;;;7.60;3.40;;;;;;;19.16;79.96;100195.44;4972486;28;20053;-91
2023/09/17 01:54:46;;;;;;;6.03;3.95;;;;;;;18.96;80.25;100163.22;4983741;28;20038;-91
2023/09/17 01:57:11;;;;;;;5.57;3.08;;;;;;;18.78;82.18;100146.16;4974336;28;20069;-90
2023/09/17 01:59:37;;;;;;;8.40;5.50;;;;;;;18.90;82.38;100178.66;4990996;28;20042;-90
2023/09/17 02:02:03;;;;;;;5.38;3.30;;;;;;;19.02;82.19;100177.28;4991316;28;20038;-90
2023/09/17 02:04:28;;;;;;;9.55;4.63;;;;;;;18.99;82.04;100177.44;4985942;28;20041;-91
2023/09/17 02:06:54;;;;;;;5.93;3.80;;;;;;;19.26;82.29;100212.78;4955041;28;20054;-91
2023/09/17 02:09:21;;;;;;;7.82;4.65;;;;;;;18.98;83.21;100160.50;4972372;28;20037;-90
2023/09/17 02:11:47;;;;;;;5.18;3.40;;;;;;;19.04;83.79;100172.75;4972228;28;20043;-91
2023/09/17 02:14:14;;;;;;;5.28;3.30;;;;;;;19.03;83.99;100160.28;4954841;28;20031;-91
2023/09/17 02:16:52;;;;;;;6.78;4.95;;;;;;;19.16;83.58;100172.22;4989514;28;20550;-92
2023/09/17 02:19:17;;;;;;;6.60;3.22;;;;;;;19.24;83.50;100179.91;4974277;28;20062;-91
2023/09/17 02:21:43;;;;;;;12.15;4.35;;;;;;;19.35;83.18;100179.44;4974273;28;20069;-91
2023/09/17 02:24:09;;;;;;;5.45;3.75;;;;;;;19.37;82.92;100177.56;4973853;28;20497;-90
2023/09/17 02:26:35;;;;;;;5.88;4.68;;;;;;;19.47;82.47;100171.75;4961629;28;20038;-91
2023/09/17 02:29:00;;;;;;;6.80;3.53;;;;;;;19.68;82.14;100185.97;4988748;28;20492;-90
2023/09/17 02:31:27;;;;;;;6.70;4.45;;;;;;;19.42;82.75;100155.03;4991084;28;20038;-90
2023/09/17 02:33:53;;;;;;;14.02;5.65;;;;;;;19.49;82.73;100180.59;4973908;28;20057;-90
2023/09/17 02:36:18;;;;;;;14.80;4.95;;;;;;;19.55;82.78;100181.25;4991111;28;20065;-90
2023/09/17 02:38:45;;;;;;;7.38;5.55;;;;;;;19.68;82.49;100211.88;4991091;28;20030;-91
2023/09/17 02:41:10;;;;;;;10.70;6.15;;;;;;;19.52;82.89;100182.22;4991386;28;20033;-89
2023/09/17 02:43:37;;;;;;;6.75;4.50;;;;;;;19.57;82.81;100179.34;4991393;28;20026;-95
2023/09/17 02:46:06;;;;;;;9.50;4.70;;;;;;;19.82;82.46;100188.06;4990573;28;20064;-89
2023/09/17 02:48:32;;;;;;;6.72;4.45;;;;;;;19.73;82.32;100185.78;4988137;28;20065;-93
2023/09/17 02:50:59;;;;;;;8.65;5.35;;;;;;;19.84;82.10;100186.16;4954407;28;20039;-88
2023/09/17 02:53:25;;;;;;;7.57;4.55;;;;;;;19.69;82.16;100165.44;4971653;28;20037;-89
2023/09/17 02:55:51;;;;;;;7.72;6.05;;;;;;;20.31;82.16;100254.56;4971749;28;20027;-91
2023/09/17 02:58:16;;;;;;;6.13;4.80;;;;;;;19.75;82.20;100165.16;4984262;28;20511;-90
2023/09/17 03:00:44;;;;;;;7.47;4.45;;;;;;;20.05;83.15;100218.28;4990695;28;20066;-88
2023/09/17 03:03:10;;;;;;;9.05;4.60;;;;;;;19.94;83.11;100194.69;4991316;28;20082;-91
2023/09/17 03:05:37;;;;;;;6.70;4.05;;;;;;;19.96;82.80;100203.50;4989939;28;20041;-89
2023/09/17 03:08:05;;;;;;;7.93;4.15;;;;;;;19.98;82.84;100193.56;4988838;28;20038;-89
2023/09/17 03:10:32;;;;;;;11.23;4.65;;;;;;;19.78;82.70;100166.84;4989939;28;20034;-88
2023/09/17 03:36:25;;;;;;;;;;;;;;;;;;;;;
2023/09/17 03:38:40;;;;;;;7.68;5.55;;;;;;;19.40;80.06;100181.00;4857241;29;20053;-93
2023/09/17 03:41:06;;;;;;;11.00;5.38;;;;;;;19.38;79.97;100190.88;4843878;29;20109;-93
2023/09/17 03:43:33;;;;;;;8.00;5.07;;;;;;;19.33;79.00;100183.03;4859491;29;20034;-92
2023/09/17 03:45:59;;;;;;;8.68;4.40;;;;;;;19.19;79.49;100181.91;4858971;29;20128;-93
2023/09/17 03:48:25;;;;;;;9.90;5.10;;;;;;;19.08;79.70;100179.72;4844067;29;20132;-93
2023/09/17 03:50:51;;;;;;;7.32;4.35;;;;;;;18.76;79.75;100142.66;4843143;29;20124;-93
2023/09/17 03:53:17;;;;;;;9.88;7.43;;;;;;;18.83;79.48;100164.66;4843783;29;20664;-93
2023/09/17 03:55:42;;;;;;;7.93;4.35;;;;;;;18.90;79.10;100170.66;4858935;29;20034;-93
2023/09/17 03:58:09;;;;;;;7.18;4.85;;;;;;;18.99;78.77;100175.59;4828217;29;20052;-93
2023/09/17 04:00:50;;;;;;;8.18;5.15;;;;;;;18.91;79.95;100181.28;4858032;29;20060;-93
2023/09/17 04:03:35;;;;;;;8.93;4.75;;;;;;;19.01;79.99;100199.59;4856937;29;20132;-94
2023/09/17 04:07:10;;;;;;;12.10;6.35;;;;;;;18.86;79.22;100167.25;4843290;29;20070;-93
2023/09/17 04:10:28;;;;;;;;;;;;;;;;;;;;;
2023/09/17 04:13:01;;;;;;;4.63;3.65;;;;;;;19.00;79.21;100211.22;4785032;29;20048;-92
2023/09/17 04:15:30;;;;;;;6.47;5.13;;;;;;;18.88;79.20;100192.09;4785460;29;20047;-92
2023/09/17 04:18:11;;;;;;;;;;;;;;;;;;;;;
2023/09/17 04:27:17;;;;;;;10.02;4.82;;;;;;;18.85;77.64;100161.97;5083324;23;20075;-95
2023/09/17 04:43:34;;;;;;;5.60;4.50;;;;;;;19.21;77.39;100204.09;4786799;30;20042;-90
2023/09/17 04:46:00;;;;;;;10.48;5.22;;;;;;;19.38;76.89;100227.47;4785021;30;20507;-91
2023/09/17 04:56:21;;;;;;;;;;;;;;;;;;;;;
2023/09/17 05:05:31;;;;;;;12.75;7.05;;;;;;;19.42;76.22;100197.84;4725485;30;20132;-89
2023/09/17 05:07:59;;;;;;;5.97;4.88;;;;;;;19.55;75.76;100205.31;4730926;30;20929;-88
2023/09/17 05:10:25;;;;;;;6.55;3.95;;;;;;;19.72;76.18;100229.50;4724219;30;20044;-90
2023/09/17 05:12:51;;;;;;;6.35;4.95;;;;;;;19.53;76.76;100209.88;4753896;30;20040;-90
2023/09/17 05:15:19;;;;;;;5.97;4.50;;;;;;;19.61;77.10;100191.66;4789194;29;20062;-88
2023/09/17 05:17:50;;;;;;;6.32;4.43;;;;;;;19.91;76.79;100220.69;4780315;29;20542;-90
2023/09/17 05:20:18;;;;;;;7.32;4.72;;;;;;;20.12;76.06;100232.25;4766632;30;20046;-90
2023/09/17 05:29:01;;;;;;;6.47;4.22;;;;;;;20.46;74.37;100233.34;4988565;23;20082;-89
2023/09/17 05:31:26;;;;;;;3.33;2.47;;;;;;;20.37;74.00;100227.50;4890767;29;20656;-86
2023/09/17 05:37:32;;;;;;;7.13;5.45;;;;;;;20.40;73.80;100213.06;4901439;29;20054;-92
2023/09/17 05:43:34;;;;;;;7.03;4.25;;;;;;;21.26;73.56;100300.06;4901041;29;20028;-94
2023/09/17 06:42:12;;;;;;;11.70;5.25;;;;;;;23.87;61.70;100241.88;5018152;23;20064;-90
2023/09/17 06:58:47;;;;;;;8.38;5.35;;;;;;;25.44;59.49;100301.94;4900987;29;20139;-92
2023/09/17 07:10:17;;;;;;;12.38;5.22;;;;;;;25.51;59.53;100208.72;4919446;29;20055;-93
2023/09/17 07:20:05;;;;;;;7.40;4.47;;;;;;;25.39;60.92;100293.25;4914755;29;20047;-96
2023/09/17 07:23:01;;;;;;;6.82;4.32;;;;;;;25.81;60.19;100298.53;4912682;29;20104;-93
2023/09/17 07:25:58;;;;;;;8.07;5.18;;;;;;;25.78;59.05;100296.94;4840257;29;20133;-94
2023/09/17 07:28:24;;;;;;;5.78;4.13;;;;;;;25.81;59.32;100247.19;4847692;29;20548;-91
2023/09/17 07:31:01;;;;;;;8.13;4.78;;;;;;;25.95;58.27;100249.81;4834601;29;20046;-94
2023/09/17 07:34:03;;;;;;;7.72;4.63;;;;;;;26.00;58.59;100295.47;4840639;29;20227;-94
2023/09/17 07:36:32;;;;;;;4.72;3.15;;;;;;;25.34;59.31;100225.22;4847792;29;20046;-96
2023/09/17 07:38:58;;;;;;;8.00;5.57;;;;;;;25.62;59.08;100243.06;4829248;29;20053;-93
2023/09/17 07:41:43;;;;;;;;;;;;;;;;;;;;;
2023/09/17 07:44:09;;;;;;;9.95;6.05;;;;;;;26.02;57.43;100220.53;4848697;29;20049;-94
2023/09/17 07:46:51;;;;;;;9.32;6.28;;;;;;;25.61;57.58;100221.56;4835812;29;20452;-94
2023/09/17 07:49:17;;;;;;;9.68;5.50;;;;;;;25.89;56.68;100234.88;4845527;29;20114;-96
2023/09/17 07:51:52;;;;;;;11.70;7.25;;;;;;;26.39;56.20;100216.03;4849468;29;20038;-93
2023/09/17 07:54:18;;;;;;;10.18;5.85;;;;;;;26.68;54.39;100241.94;4953127;23;20064;-91
2023/09/17 07:56:44;;;;;;;12.35;6.72;;;;;;;27.02;54.10;100252.94;4880042;29;20258;-91
2023/09/17 07:59:10;;;;;;;8.52;5.32;;;;;;;27.27;52.82;100239.28;4895040;29;20033;-92
2023/09/17 08:01:38;;;;;;;8.07;5.40;;;;;;;27.41;52.55;100259.94;4895472;29;20036;-94
2023/09/17 08:04:04;;;;;;;8.05;5.68;;;;;;;27.04;52.24;100237.47;4880175;29;20115;-94
2023/09/17 08:06:32;;;;;;;13.07;5.93;;;;;;;26.92;51.87;100204.94;4898490;29;20464;-94
2023/09/17 08:08:59;;;;;;;8.38;5.07;;;;;;;27.44;50.63;100262.41;4951185;23;20048;-94
2023/09/17 08:11:35;;;;;;;10.00;6.70;;;;;;;27.36;50.96;100242.31;4883377;29;20036;-96
2023/09/17 08:14:14;;;;;;;7.90;5.15;;;;;;;27.14;50.03;100224.97;4876187;29;20072;-95
2023/09/17 08:16:45;;;;;;;8.73;6.47;;;;;;;27.47;49.81;100216.13;4883716;29;20033;-96
2023/09/17 08:19:12;;;;;;;8.80;5.07;;;;;;;27.96;49.29;100218.69;4869249;29;20070;-96
2023/09/17 08:21:38;;;;;;;8.23;5.38;;;;;;;28.11;49.25;100244.56;4862396;29;20620;-92
2023/09/17 08:24:06;;;;;;;18.23;6.82;;;;;;;27.81;49.67;100251.44;4852334;29;20141;-89
2023/09/17 08:26:35;;;;;;;13.65;5.00;;;;;;;27.35;48.01;100238.75;4853804;29;20043;-95
2023/09/17 08:29:01;;;;;;;15.60;5.60;;;;;;;27.38;48.68;100221.41;4840049;29;20054;-92
2023/09/17 08:31:29;;;;;;;9.18;4.80;;;;;;;27.36;50.26;100226.06;4840596;29;20048;-92
2023/09/17 08:33:57;;;;;;;8.75;5.40;;;;;;;27.29;50.30;100210.25;4839847;29;20033;-90
2023/09/17 08:36:24;;;;;;;10.98;5.65;;;;;;;26.78;50.51;100219.50;4842275;29;20034;-93
2023/09/17 08:38:52;;;;;;;8.73;4.32;;;;;;;27.02;52.05;100282.72;4826909;29;20441;-94
2023/09/17 08:41:24;;;;;;;9.48;5.97;;;;;;;26.60;51.61;100212.72;4847748;29;20083;-95
2023/09/17 08:43:54;;;;;;;8.73;5.65;;;;;;;26.78;50.45;100218.63;4828330;29;20074;-95
2023/09/17 08:46:21;;;;;;;6.35;3.88;;;;;;;27.38;47.43;100191.59;4828445;29;20060;-93
2023/09/17 08:48:49;;;;;;;8.00;3.63;;;;;;;27.97;46.15;100239.41;4839757;29;20038;-96
2023/09/17 08:51:38;;;;;;;9.07;5.00;;;;;;;27.45;47.26;100230.75;4858207;29;20081;-91
2023/09/17 08:54:46;;;;;;;7.97;4.97;;;;;;;27.89;48.78;100256.25;4855480;29;20088;-96
2023/09/17 08:57:55;;;;;;;9.13;4.85;;;;;;;27.67;48.49;100251.66;4860307;29;20493;-91
2023/09/17 09:00:45;;;;;;;7.28;4.60;;;;;;;26.71;49.87;100201.13;4859501;29;20505;-94
2023/09/17 09:03:25;;;;;;;7.25;3.63;;;;;;;26.55;50.83;100182.44;4858475;29;20042;-92
2023/09/17 09:09:35;;;;;;;6.80;4.50;;;;;;;27.28;50.16;100259.09;4823551;29;20058;-92
2023/09/17 09:12:04;;;;;;;8.73;4.78;;;;;;;26.86;49.64;100182.88;4816388;29;20517;-91
2023/09/17 09:14:40;;;;;;;14.05;7.35;;;;;;;27.31;48.37;100202.91;4839693;29;20087;-95
2023/09/17 09:17:23;;;;;;;8.75;6.25;;;;;;;27.18;47.80;100196.69;4838739;29;20561;-95
2023/09/17 09:19:55;;;;;;;7.20;4.93;;;;;;;27.26;46.00;100190.66;4845487;29;20053;-93
2023/09/17 09:22:23;;;;;;;10.77;4.95;;;;;;;27.91;44.73;100227.16;4842074;29;20202;-92
2023/09/17 09:25:10;;;;;;;8.30;4.63;;;;;;;27.91;44.09;100246.13;4846775;29;20041;-91
2023/09/17 09:27:41;;;;;;;7.90;4.53;;;;;;;27.51;44.64;100195.06;4838184;29;20061;-93
2023/09/17 09:30:09;;;;;;;8.23;5.18;;;;;;;27.87;45.70;100209.44;4840200;29;20038;-92
2023/09/17 09:32:52;;;;;;;8.27;5.53;;;;;;;27.92;44.66;100177.38;4840353;29;20041;-95
2023/09/17 09:35:22;;;;;;;7.40;4.60;;;;;;;27.94;45.02;100204.38;4822422;29;20038;-95
2023/09/17 09:37:53;;;;;;;10.27;5.90;;;;;;;27.91;45.23;100164.81;4813731;29;20457;-96
2023/09/17 09:40:24;;;;;;;12.85;5.45;;;;;;;27.69;43.62;100157.53;4841406;29;20089;-95
2023/09/17 09:46:19;;;;;;;11.07;3.97;;;;;;;26.95;46.16;100166.81;4880363;29;20040;-94
2023/09/17 09:48:46;;;;;;;5.97;4.78;;;;;;;26.82;46.78;100171.44;4910762;29;20518;-91
2023/09/17 09:51:16;;;;;;;7.57;5.53;;;;;;;26.33;47.87;100143.47;4878163;29;20045;-89
2023/09/17 09:53:41;;;;;;;6.93;4.35;;;;;;;26.65;48.29;100167.25;4907673;29;20032;-89
2023/09/17 09:56:07;;;;;;;9.10;5.07;;;;;;;27.11;46.78;100179.16;4904155;29;20119;-88
2023/09/17 09:58:33;;;;;;;5.27;3.93;;;;;;;26.83;45.39;100167.72;4913830;29;20498;-88
2023/09/17 10:01:31;;;;;;;;;;;;;;;;;;;;;
2023/09/17 10:03:58;;;;;;;6.28;4.80;;;;;;;26.98;45.52;100179.25;4896214;29;20487;-86
2023/09/17 10:06:23;;;;;;;7.93;5.68;;;;;;;27.04;45.66;100124.66;4913157;29;20463;-86
2023/09/17 10:08:52;;;;;;;10.75;4.60;;;;;;;27.21;44.35;100160.38;4896882;29;20052;-90
2023/09/17 10:11:19;;;;;;;8.93;5.57;;;;;;;27.46;44.07;100171.06;4913306;29;20043;-91
2023/09/17 10:13:45;;;;;;;6.53;4.90;;;;;;;27.10;45.81;100126.03;4913954;29;20024;-92
2023/09/17 10:16:14;;;;;;;7.38;4.65;;;;;;;27.66;46.21;100199.28;4909496;29;20151;-91
2023/09/17 10:18:44;;;;;;;5.95;4.22;;;;;;;27.42;44.53;100145.22;4896694;29;20028;-92
2023/09/17 10:21:14;;;;;;;48.42;16.80;;;;;;;28.03;45.81;100181.97;4913202;29;20036;-91
2023/09/17 10:23:40;;;;;;;30.95;10.43;;;;;;;27.95;44.25;100149.19;4912495;29;20068;-91
2023/09/17 10:26:06;;;;;;;11.77;6.25;;;;;;;27.75;42.97;100127.25;4913346;29;20032;-92
2023/09/17 10:28:56;;;;;;;7.22;4.78;;;;;;;28.15;42.36;100143.03;4913150;29;20047;-95
2023/09/17 10:31:23;;;;;;;6.45;3.78;;;;;;;28.35;42.42;100148.66;4896321;29;20036;-90
2023/09/17 10:33:50;;;;;;;4.90;3.05;;;;;;;28.36;41.36;100101.56;4895405;29;20032;-90
2023/09/17 10:36:16;;;;;;;7.15;4.00;;;;;;;28.23;41.23;100118.00;4900976;29;20119;-91
2023/09/17 10:38:43;;;;;;;5.60;3.53;;;;;;;28.00;41.60;100144.28;4888822;29;20123;-88
2023/09/17 10:41:27;;;;;;;;;;;;;;;;;;;;;
2023/09/17 10:43:58;;;;;;;6.53;3.00;;;;;;;27.81;42.12;100115.06;4913325;29;20036;-92
2023/09/17 10:46:41;;;;;;;5.28;3.63;;;;;;;28.03;41.08;100122.34;4896239;29;20036;-94
2023/09/17 10:49:12;;;;;;;5.93;2.95;;;;;;;28.38;41.14;100141.13;4873980;29;20040;-93
2023/09/17 10:51:39;;;;;;;7.90;3.00;;;;;;;27.99;42.01;100118.13;4877711;29;20040;-88
2023/09/17 10:54:05;;;;;;;5.40;3.72;;;;;;;27.87;41.63;100112.72;4911826;29;20069;-91
2023/09/17 10:56:31;;;;;;;3.38;3.08;;;;;;;27.90;40.59;100089.91;4897212;29;20487;-87
2023/09/17 10:58:59;;;;;;;6.53;2.47;;;;;;;28.35;40.74;100151.38;4911642;29;20483;-88
2023/09/17 11:01:31;;;;;;;5.90;3.58;;;;;;;28.06;41.59;100083.28;4914206;29;20044;-94
2023/09/17 11:04:18;;;;;;;6.35;3.22;;;;;;;27.90;42.63;100117.03;4863542;29;20166;-91
2023/09/17 11:06:52;;;;;;;5.47;2.78;;;;;;;28.11;41.81;100081.03;4910938;29;20056;-95
2023/09/17 11:09:32;;;;;;;7.18;3.78;;;;;;;28.18;41.75;100064.13;4915706;29;20060;-91
2023/09/17 11:11:58;;;;;;;5.93;3.08;;;;;;;28.41;41.58;100055.94;4904846;29;20040;-92
2023/09/17 11:14:34;;;;;;;4.05;2.58;;;;;;;28.63;40.17;100084.84;4895870;29;20028;-92
2023/09/17 11:17:00;;;;;;;6.90;3.53;;;;;;;28.55;40.12;100060.19;4881574;29;20039;-92
2023/09/17 11:19:26;;;;;;;4.13;2.42;;;;;;;28.56;39.84;100095.34;4898846;29;20044;-94
2023/09/17 11:22:23;;;;;;;5.88;2.38;;;;;;;28.40;39.47;100074.03;4896504;29;20064;-93
2023/09/17 11:24:50;;;;;;;2.90;1.60;;;;;;;28.34;39.73;100052.84;4895355;29;20040;-94
2023/09/17 11:27:20;;;;;;;7.28;2.70;;;;;;;28.70;40.54;100121.34;4897534;29;20036;-95
2023/09/17 11:29:46;;;;;;;4.22;2.65;;;;;;;28.72;40.01;100075.94;4913712;29;20036;-93
2023/09/17 11:32:20;;;;;;;7.70;2.92;;;;;;;28.88;38.73;100075.47;4915747;29;20036;-95
2023/09/17 11:34:47;;;;;;;20.38;2.90;;;;;;;28.91;38.22;100074.34;4933281;29;20569;-94
2023/09/17 11:37:19;;;;;;;3.53;2.35;;;;;;;28.57;38.22;100050.91;4908051;29;20044;-92
2023/09/17 11:39:56;;;;;;;5.68;2.10;;;;;;;28.21;37.73;100044.91;4897778;29;20562;-96
2023/09/17 11:42:34;;;;;;;8.40;2.17;;;;;;;28.16;38.33;100054.38;4897474;29;20035;-93
2023/09/17 11:45:30;;;;;;;3.65;2.60;;;;;;;28.33;37.85;100024.03;4915682;29;20082;-95
2023/09/17 11:47:55;;;;;;;3.78;2.15;;;;;;;28.71;38.54;100066.03;4842279;29;20103;-91
2023/09/17 11:50:21;;;;;;;5.43;2.92;;;;;;;28.31;37.27;100026.00;4842246;29;20412;-90
2023/09/17 11:53:06;;;;;;;4.05;1.80;;;;;;;28.55;39.24;100019.50;4824225;29;20050;-89
2023/09/17 11:55:32;;;;;;;5.20;3.13;;;;;;;28.99;36.89;100073.69;4841827;29;20137;-93
2023/09/17 11:58:19;;;;;;;5.30;2.67;;;;;;;28.90;37.10;100035.50;4841315;29;20168;-92
2023/09/17 12:00:48;;;;;;;5.22;2.47;;;;;;;29.09;36.91;100021.16;4834401;29;20113;-89
2023/09/17 12:03:14;;;;;;;6.70;1.75;;;;;;;29.09;35.35;100013.00;4840185;29;20152;-91
2023/09/17 12:05:39;;;;;;;6.10;2.53;;;;;;;29.29;34.95;100029.44;4824129;29;20525;-93
2023/09/17 12:08:05;;;;;;;7.57;2.60;;;;;;;29.27;35.32;100012.41;4823470;29;20033;-92
2023/09/17 12:10:56;;;;;;;4.03;2.47;;;;;;;29.28;34.45;100004.13;4819652;29;20058;-91
2023/09/17 12:13:18;;;;;;;6.78;2.60;;;;;;;28.87;34.20;99997.75;4839108;29;20058;-91
2023/09/17 12:15:48;;;;;;;4.03;2.97;;;;;;;29.00;34.79;100048.28;4825859;29;20402;-95
2023/09/17 12:18:17;;;;;;;3.50;1.92;;;;;;;28.77;34.62;100006.81;4811985;29;20496;-91
2023/09/17 12:21:07;;;;;;;4.82;2.80;;;;;;;28.84;34.69;99992.59;4841257;29;20490;-91
2023/09/17 12:23:57;;;;;;;8.45;2.72;;;;;;;29.20;35.09;100028.41;4849841;29;20052;-88
2023/09/17 12:29:30;;;;;;;4.43;2.67;;;;;;;28.69;36.65;99974.91;4896797;29;20180;-90
2023/09/17 12:31:56;;;;;;;5.72;2.55;;;;;;;29.13;37.10;99996.44;4897191;29;20033;-94
2023/09/17 12:34:21;;;;;;;4.97;3.03;;;;;;;28.99;36.77;99963.22;4883773;29;20043;-93
2023/09/17 12:36:47;;;;;;;5.20;2.30;;;;;;;29.35;35.50;100011.72;4868727;29;20044;-92
2023/09/17 12:39:13;;;;;;;4.35;2.80;;;;;;;29.43;34.85;99998.34;4895789;29;20499;-87
2023/09/17 12:41:44;;;;;;;4.72;2.83;;;;;;;29.23;34.63;99964.81;4896786;29;20033;-94
2023/09/17 12:44:34;;;;;;;8.45;3.45;;;;;;;29.58;34.54;100025.97;4897324;29;20039;-94
2023/09/17 12:47:14;;;;;;;4.75;3.00;;;;;;;29.04;34.79;99982.69;4862115;29;20037;-95
2023/09/17 12:50:04;;;;;;;3.90;2.10;;;;;;;28.82;35.63;99988.28;4866399;29;20500;-93
2023/09/17 12:52:35;;;;;;;3.20;2.47;;;;;;;28.83;35.82;99938.44;4865641;29;20073;-95
2023/09/17 12:55:09;;;;;;;2.55;1.77;;;;;;;29.30;35.35;99976.81;4877511;29;20037;-92
2023/09/17 12:57:39;;;;;;;3.58;2.45;;;;;;;29.47;34.95;100032.38;4861342;29;20528;-92
2023/09/17 13:00:06;;;;;;;4.00;2.35;;;;;;;28.88;35.86;99963.31;4862477;29;20072;-90
2023/09/17 13:02:33;;;;;;;5.18;2.67;;;;;;;28.97;34.96;99942.66;4871247;29;20064;-92
2023/09/17 13:05:01;;;;;;;3.22;1.83;;;;;;;29.44;35.40;99992.78;4880927;29;20029;-94
2023/09/17 13:08:31;;;;;;;;;;;;;;;;;;;;;
2023/09/17 13:10:57;;;;;;;3.53;1.45;;;;;;;29.49;34.25;99948.00;4892940;29;20467;-92
2023/09/17 13:13:51;;;;;;;3.53;2.03;;;;;;;29.99;34.54;100000.50;4848563;29;20037;-94
2023/09/17 13:19:01;;;;;;;5.45;1.98;;;;;;;29.36;34.28;99954.53;5325986;23;20122;-94
2023/09/17 13:22:00;;;;;;;3.35;2.47;;;;;;;29.55;35.21;99993.63;4888217;29;20044;-96
2023/09/17 13:24:46;;;;;;;2.90;2.13;;;;;;;29.21;34.84;99924.22;4907799;23;20056;-96
2023/09/17 13:27:43;;;;;;;;;;;;;;;;;;;;;
2023/09/17 13:30:10;;;;;;;5.25;1.65;;;;;;;29.69;34.57;99995.13;4191892;23;20075;-94
2023/09/17 13:32:37;;;;;;;3.75;1.45;;;;;;;29.56;34.40;99919.28;4900502;29;20104;-95
2023/09/17 13:35:10;;;;;;;3.17;1.92;;;;;;;29.74;34.18;99939.34;4904362;29;20060;-95
2023/09/17 13:37:40;;;;;;;1.98;1.33;;;;;;;29.83;32.75;99918.66;4878318;29;20088;-95
2023/09/17 13:40:25;;;;;;;3.05;1.88;;;;;;;29.35;34.23;99935.66;4898702;29;20047;-93
2023/09/17 13:42:51;;;;;;;2.05;1.27;;;;;;;29.17;34.57;99925.44;4904384;29;20104;-93
2023/09/17 13:45:19;;;;;;;2.83;1.80;;;;;;;29.42;34.23;99915.09;4911824;29;20032;-94
2023/09/17 13:47:45;;;;;;;2.03;1.83;;;;;;;29.50;33.76;99941.56;4912816;29;20183;-90
2023/09/17 13:50:10;;;;;;;1.95;1.35;;;;;;;29.53;34.20;99954.88;4911914;29;20535;-91
2023/09/17 13:52:36;;;;;;;2.85;1.42;;;;;;;29.57;33.67;99931.88;4913881;29;20111;-91
2023/09/17 13:55:01;;;;;;;2.92;1.40;;;;;;;29.49;33.73;99937.13;4913400;29;20396;-90
2023/09/17 13:57:27;;;;;;;2.47;1.95;;;;;;;29.26;33.72;99905.63;4913525;29;20051;-91
2023/09/17 13:59:53;;;;;;;5.22;1.77;;;;;;;29.49;33.67;99946.16;4912829;29;20076;-91
2023/09/17 14:02:20;;;;;;;2.33;1.40;;;;;;;29.55;33.96;99921.16;4912770;29;20495;-90
2023/09/17 14:04:46;;;;;;;2.80;1.45;;;;;;;29.74;33.35;99917.59;4911010;29;20041;-92
2023/09/17 14:07:11;;;;;;;3.17;1.10;;;;;;;29.88;33.17;99942.69;4903826;29;20504;-90
2023/09/17 14:09:37;;;;;;;6.75;1.92;;;;;;;29.35;33.64;99908.50;4895991;29;20036;-93
2023/09/17 14:12:04;;;;;;;2.72;1.52;;;;;;;29.22;33.76;99936.75;4893491;29;20059;-94
2023/09/17 14:14:45;;;;;;;5.80;2.17;;;;;;;29.18;33.90;99910.00;4895801;29;20471;-93
2023/09/17 14:17:23;;;;;;;2.50;1.50;;;;;;;29.62;33.14;99903.25;4896291;29;20044;-96
2023/09/17 14:19:49;;;;;;;1.92;1.60;;;;;;;29.85;33.71;99908.47;4860759;29;20049;-95
2023/09/17 14:22:27;;;;;;;5.00;2.17;;;;;;;30.59;32.68;99979.66;4854320;29;20104;-96
2023/09/17 14:25:09;;;;;;;1.17;1.02;;;;;;;30.48;32.36;99927.09;4839518;29;20033;-95
2023/09/17 14:56:34;;;;;;;1.65;1.42;;;;;;;29.52;34.29;99939.56;4820496;29;20590;-93
2023/09/17 14:59:01;;;;;;;3.58;1.80;;;;;;;29.34;34.64;99936.69;4822396;29;20043;-94
2023/09/17 15:07:25;;;;;;;2.50;1.40;;;;;;;29.42;34.49;99932.25;5114078;23;20129;-96
2023/09/17 15:09:53;;;;;;;4.03;2.53;;;;;;;29.00;34.63;99907.09;4852481;29;20025;-96
2023/09/17 15:12:27;;;;;;;2.35;1.88;;;;;;;28.94;35.10;99951.91;4880048;29;20078;-89
2023/09/17 15:17:58;;;;;;;4.65;2.03;;;;;;;29.21;35.31;99980.34;5362178;23;20512;-95
2023/09/17 15:20:42;;;;;;;1.60;1.05;;;;;;;28.84;35.63;99937.41;4879128;29;20068;-96
2023/09/17 15:28:17;;;;;;;;;;;;;;;28.92;36.02;99992.78;4951971;23;20273;-90
2023/09/17 15:31:05;;;;;;;7.95;1.88;;;;;;;28.59;35.93;99939.56;4879384;29;20437;-92